Time;durP1;ratioP1;P1;durP2;ratioP2;P2;SDS_P1;SDS_P2;PMS_P1;PMS_P2;Temp;Humidity;BMP_temperature;BMP_pressure;BME280_temperature;BME280_humidity;BME280_pressure;Samples;Min_cycle;Max_cycle;Signal;HPM_P1;HPM_P2
2022/01/13 00:01:17;;;;;;;10.55;7.35;;;;;;;18.30;44.12;104074.75;5036457;28;20457;-61
2022/01/13 00:03:42;;;;;;;9.68;6.63;;;;;;;18.28;44.25;104074.81;5036087;28;20022;-61
2022/01/13 00:06:07;;;;;;;10.82;7.18;;;;;;;18.25;44.21;104071.41;5035628;28;20021;-60
2022/01/13 00:08:33;;;;;;;10.32;6.97;;;;;;;18.23;44.03;104074.09;5036232;28;20029;-61
2022/01/13 00:10:58;;;;;;;11.50;7.07;;;;;;;18.22;44.15;104084.69;5036542;28;20037;-61
2022/01/13 00:13:30;;;;;;;8.90;6.53;;;;;;;18.20;44.30;104079.47;5035571;28;20266;-61
2022/01/13 00:18:48;;;;;;;12.15;7.47;;;;;;;18.17;44.20;104084.84;5036132;28;20036;-61
2022/01/13 00:21:31;;;;;;;;;;;;;;;18.13;44.33;104091.09;5034602;28;20489;-60
2022/01/13 00:24:01;;;;;;;11.50;6.72;;;;;;;18.12;43.79;104081.47;5036277;28;19924;-60
2022/01/13 00:26:28;;;;;;;9.75;6.95;;;;;;;18.10;43.98;104083.28;5035392;28;20029;-60
2022/01/13 00:28:55;;;;;;;10.32;6.38;;;;;;;18.08;44.02;104083.31;5035667;28;20105;-60
2022/01/13 00:31:29;;;;;;;11.32;7.18;;;;;;;18.05;44.42;104091.34;5035549;28;20042;-61
2022/01/13 00:33:57;;;;;;;9.52;6.60;;;;;;;18.03;44.27;104085.25;5035148;28;20478;-60
2022/01/13 00:36:24;;;;;;;10.30;6.68;;;;;;;18.02;44.35;104077.38;5035990;28;20037;-61
2022/01/13 00:38:50;;;;;;;11.35;6.82;;;;;;;17.99;44.14;104085.38;5035662;28;20052;-61
2022/01/13 00:41:15;;;;;;;9.32;6.75;;;;;;;17.99;44.44;104098.56;5034798;28;20520;-62
2022/01/13 00:43:42;;;;;;;9.48;6.22;;;;;;;17.97;44.37;104092.50;5035496;28;20036;-61
2022/01/13 00:46:09;;;;;;;9.80;7.13;;;;;;;17.93;44.34;104087.31;5035597;28;20385;-61
2022/01/13 00:48:35;;;;;;;9.38;6.20;;;;;;;17.92;44.47;104082.91;5034525;28;20111;-61
2022/01/13 00:51:00;;;;;;;9.68;6.68;;;;;;;17.90;44.54;104075.97;5035685;28;20108;-60
2022/01/13 00:53:26;;;;;;;9.45;6.93;;;;;;;17.88;44.71;104076.03;5035701;28;20068;-61
2022/01/13 00:56:00;;;;;;;8.73;6.60;;;;;;;17.87;44.55;104079.53;5034523;28;20017;-61
2022/01/13 00:58:30;;;;;;;;;;;;;;;17.84;44.47;104076.13;5035952;28;20468;-61
2022/01/13 01:00:56;;;;;;;8.68;6.07;;;;;;;17.85;44.30;104080.47;5035601;28;19959;-61
2022/01/13 01:03:22;;;;;;;8.00;6.22;;;;;;;17.83;44.34;104079.66;5033811;28;20071;-61
2022/01/13 01:05:48;;;;;;;11.43;6.78;;;;;;;17.80;44.62;104072.72;5035309;28;20104;-61
2022/01/13 01:08:14;;;;;;;10.52;7.07;;;;;;;17.78;44.17;104071.88;5034781;28;20056;-61
2022/01/13 01:10:40;;;;;;;9.07;6.50;;;;;;;17.76;44.43;104079.81;5034967;28;20021;-61
2022/01/13 01:13:15;;;;;;;9.68;6.38;;;;;;;17.73;44.32;104077.28;5035509;28;20029;-61
2022/01/13 01:15:46;;;;;;;9.45;6.30;;;;;;;17.73;44.40;104079.91;5034096;28;20485;-61
2022/01/13 01:18:41;;;;;;;10.35;6.35;;;;;;;17.73;43.76;104082.56;5035288;28;20025;-61
2022/01/13 01:23:55;;;;;;;8.23;5.32;;;;;;;17.76;43.90;104064.00;5034181;28;20461;-62
2022/01/13 01:31:31;;;;;;;8.80;5.85;;;;;;;17.82;43.78;104075.31;5033906;28;20045;-61
2022/01/13 01:36:41;;;;;;;8.30;5.90;;;;;;;17.85;43.38;104077.81;5033977;28;20500;-60
2022/01/13 01:39:08;;;;;;;8.02;5.13;;;;;;;17.84;43.22;104084.88;5034719;28;20040;-62
2022/01/13 01:41:45;;;;;;;8.18;5.50;;;;;;;17.85;43.66;104083.09;5034423;28;20029;-62
2022/01/13 01:44:13;;;;;;;8.15;5.72;;;;;;;17.86;43.66;104080.41;5033883;28;20029;-62
2022/01/13 01:46:42;;;;;;;8.85;5.85;;;;;;;17.86;43.17;104077.78;5034441;28;20028;-62
2022/01/13 01:49:18;;;;;;;7.60;5.70;;;;;;;17.85;43.22;104070.78;5034473;28;20473;-61
2022/01/13 01:51:46;;;;;;;7.75;5.38;;;;;;;17.86;43.21;104074.28;5033441;28;20033;-61
2022/01/13 01:54:15;;;;;;;7.88;5.47;;;;;;;17.84;43.29;104058.50;5034619;28;20030;-62
2022/01/13 01:56:41;;;;;;;6.93;4.70;;;;;;;17.84;42.96;104055.88;5033971;28;20103;-62
2022/01/13 01:59:14;;;;;;;7.97;5.25;;;;;;;17.83;43.16;104048.88;5033660;28;20030;-62
2022/01/13 02:01:40;;;;;;;8.48;5.15;;;;;;;17.82;43.28;104049.78;5034251;28;20108;-61
2022/01/13 02:04:06;;;;;;;6.95;4.97;;;;;;;17.82;43.13;104048.94;5034354;28;20025;-61
2022/01/13 02:06:35;;;;;;;7.00;4.68;;;;;;;17.80;43.33;104048.97;5033287;28;20025;-62
2022/01/13 02:09:05;;;;;;;6.50;4.78;;;;;;;17.80;43.18;104045.44;5034076;28;20065;-61
2022/01/13 02:11:38;;;;;;;7.22;4.68;;;;;;;17.79;42.98;104044.59;5033451;28;20108;-62
2022/01/13 02:14:20;;;;;;;7.57;5.35;;;;;;;17.80;43.14;104050.72;5034216;28;20065;-61
2022/01/13 02:16:49;;;;;;;9.20;4.68;;;;;;;17.81;43.41;104050.69;5033751;28;20061;-62
2022/01/13 02:19:15;;;;;;;7.95;4.65;;;;;;;17.81;43.50;104055.94;5033164;28;20021;-61
2022/01/13 02:21:40;;;;;;;6.88;4.53;;;;;;;17.82;43.22;104068.25;5033425;28;20474;-61
2022/01/13 02:24:09;;;;;;;7.27;4.70;;;;;;;17.83;43.16;104056.78;5034125;28;20026;-61
2022/01/13 02:26:34;;;;;;;6.18;4.40;;;;;;;17.83;42.91;104071.75;5032959;28;20382;-61
2022/01/13 02:29:00;;;;;;;6.78;4.90;;;;;;;17.83;43.19;104080.53;5033897;28;20060;-61
2022/01/13 02:31:26;;;;;;;6.82;4.80;;;;;;;17.83;43.33;104085.81;5033578;28;20037;-61
2022/01/13 02:33:53;;;;;;;6.93;4.45;;;;;;;17.84;43.19;104079.63;5032592;28;20026;-61
2022/01/13 02:36:20;;;;;;;7.00;4.60;;;;;;;17.84;42.86;104074.34;5033565;28;20032;-62
2022/01/13 02:38:53;;;;;;;6.53;4.50;;;;;;;17.83;42.79;104072.63;5033386;28;20087;-62
2022/01/13 02:41:19;;;;;;;7.50;4.70;;;;;;;17.82;42.89;104062.97;5032762;28;20046;-62
2022/01/13 02:43:46;;;;;;;7.35;4.35;;;;;;;17.83;43.23;104069.09;5033184;28;20034;-62
2022/01/13 02:49:11;;;;;;;6.50;4.30;;;;;;;17.84;43.28;104070.84;5033432;28;20026;-61
2022/01/13 02:51:42;;;;;;;7.78;4.85;;;;;;;17.84;43.32;104053.22;5033271;28;20076;-62
2022/01/13 02:54:08;;;;;;;7.03;4.40;;;;;;;17.86;43.48;104058.47;5032710;28;20029;-62
2022/01/13 02:56:35;;;;;;;8.00;4.80;;;;;;;17.87;43.55;104065.47;5033050;28;20124;-61
2022/01/13 02:59:01;;;;;;;8.02;4.80;;;;;;;17.87;43.21;104063.69;5033007;28;20537;-61
2022/01/13 03:01:26;;;;;;;7.75;4.93;;;;;;;17.86;43.00;104064.59;5032279;28;20120;-62
2022/01/13 03:03:52;;;;;;;6.95;4.97;;;;;;;17.87;43.37;104058.41;5032811;28;20363;-61
2022/01/13 03:06:23;;;;;;;7.13;4.55;;;;;;;17.87;43.21;104066.34;5033202;28;20049;-61
2022/01/13 03:08:50;;;;;;;7.35;4.40;;;;;;;17.87;43.28;104060.19;5032097;28;20555;-62
2022/01/13 03:11:15;;;;;;;8.40;5.50;;;;;;;17.88;43.12;104056.66;5032922;28;20036;-60
2022/01/13 03:13:41;;;;;;;6.97;4.75;;;;;;;17.88;43.41;104054.91;5032533;28;20405;-61
2022/01/13 03:16:12;;;;;;;6.80;4.72;;;;;;;17.90;43.32;104052.22;5032395;28;20082;-60
2022/01/13 03:18:40;;;;;;;5.82;4.22;;;;;;;17.91;43.65;104048.66;5032773;28;20034;-60
2022/01/13 03:21:07;;;;;;;7.00;4.80;;;;;;;17.91;43.48;104044.28;5032926;28;20389;-60
2022/01/13 03:23:34;;;;;;;7.47;4.53;;;;;;;17.93;43.35;104038.94;5031769;28;20432;-61
2022/01/13 03:26:00;;;;;;;7.43;4.95;;;;;;;17.93;43.34;104039.81;5032327;28;20115;-61
2022/01/13 03:28:29;;;;;;;7.50;5.30;;;;;;;17.93;43.56;104042.44;5032684;28;20073;-61
2022/01/13 03:30:56;;;;;;;7.30;4.63;;;;;;;17.93;43.47;104033.66;5031795;28;20515;-61
2022/01/13 03:33:22;;;;;;;7.63;4.70;;;;;;;17.91;43.13;104041.63;5032863;28;20037;-61
2022/01/13 03:35:47;;;;;;;7.57;4.97;;;;;;;17.92;43.17;104042.47;5032239;28;20470;-61
2022/01/13 03:38:13;;;;;;;7.25;4.85;;;;;;;17.92;42.87;104039.84;5032209;28;20079;-61
2022/01/13 03:40:38;;;;;;;7.30;4.95;;;;;;;17.91;43.27;104044.28;5032181;28;20037;-61
2022/01/13 03:43:05;;;;;;;7.50;5.40;;;;;;;17.90;43.03;104047.81;5032077;28;20030;-60
2022/01/13 03:45:32;;;;;;;8.23;5.30;;;;;;;17.90;43.16;104044.31;5032112;28;20473;-60
2022/01/13 03:47:58;;;;;;;7.90;4.95;;;;;;;17.91;43.39;104038.09;5032827;28;20041;-61
2022/01/13 03:50:23;;;;;;;8.05;5.85;;;;;;;17.92;43.41;104035.41;5031781;28;20049;-60
2022/01/13 03:53:17;;;;;;;8.40;5.60;;;;;;;17.91;43.65;104040.75;5032190;28;20092;-61
2022/01/13 03:56:05;;;;;;;8.23;5.32;;;;;;;17.93;43.38;104031.03;5032028;28;20302;-61
2022/01/13 03:59:21;;;;;;;10.07;5.68;;;;;;;17.92;43.43;104035.41;5031148;28;20029;-61
2022/01/13 04:02:10;;;;;;;8.35;5.32;;;;;;;17.92;43.48;104032.78;5032435;28;20041;-61
2022/01/13 04:04:38;;;;;;;7.90;5.47;;;;;;;17.93;43.17;104039.81;5031542;28;20132;-61
2022/01/13 04:07:18;;;;;;;7.80;5.43;;;;;;;17.92;43.36;104032.78;5032517;28;20033;-61
2022/01/13 04:09:44;;;;;;;8.32;5.63;;;;;;;17.92;43.21;104034.56;5032142;28;20104;-61
2022/01/13 04:12:11;;;;;;;7.93;5.50;;;;;;;17.91;43.36;104033.72;5031606;28;20045;-61
2022/01/13 04:14:44;;;;;;;8.15;5.43;;;;;;;17.92;43.39;104039.84;5031951;28;20053;-61
2022/01/13 04:17:15;;;;;;;7.47;5.57;;;;;;;17.92;43.46;104030.13;5032579;28;20095;-61
2022/01/13 04:19:41;;;;;;;9.15;5.50;;;;;;;17.93;43.68;104026.59;5031310;28;20076;-60
2022/01/13 04:22:08;;;;;;;8.15;5.72;;;;;;;17.94;43.44;104032.75;5032298;28;20053;-61
2022/01/13 04:24:45;;;;;;;8.23;5.75;;;;;;;17.95;43.49;104027.41;5031984;28;20034;-61
2022/01/13 04:27:13;;;;;;;8.50;5.63;;;;;;;17.97;43.54;104034.44;5031667;28;20033;-61
2022/01/13 04:29:41;;;;;;;7.65;5.13;;;;;;;17.95;43.25;104032.69;5031982;28;20046;-61
2022/01/13 04:32:07;;;;;;;7.93;5.70;;;;;;;17.95;43.46;104032.69;5031641;28;20026;-62
2022/01/13 04:34:36;;;;;;;8.75;5.97;;;;;;;17.97;43.19;104030.00;5032102;28;20037;-61
2022/01/13 04:37:01;;;;;;;9.38;5.70;;;;;;;17.96;43.29;104033.56;5032426;28;20469;-61
2022/01/13 04:39:28;;;;;;;9.10;5.53;;;;;;;17.94;43.05;104027.47;5035248;28;20100;-62
2022/01/13 04:41:54;;;;;;;8.57;5.22;;;;;;;17.95;43.47;104023.91;5035778;28;20070;-61
2022/01/13 04:44:22;;;;;;;8.32;5.85;;;;;;;17.95;43.60;104018.66;5035892;28;20090;-62
2022/01/13 04:46:49;;;;;;;7.28;5.47;;;;;;;17.95;43.27;104018.66;5034847;28;20070;-62
2022/01/13 04:49:21;;;;;;;9.48;6.07;;;;;;;17.96;43.32;104020.38;5035734;28;20025;-62
2022/01/13 04:51:55;;;;;;;9.15;6.25;;;;;;;17.97;43.34;104024.72;5035331;28;20068;-61
2022/01/13 04:54:20;;;;;;;8.18;5.82;;;;;;;17.97;43.42;104021.25;5035056;28;20036;-61
2022/01/13 04:59:13;;;;;;;8.27;6.03;;;;;;;17.96;43.11;104017.75;5035662;28;20278;-62
2022/01/13 05:01:39;;;;;;;8.65;5.57;;;;;;;17.96;43.11;104017.75;5034268;28;20029;-61
2022/01/13 05:04:08;;;;;;;8.25;5.72;;;;;;;17.95;42.92;104016.84;5035333;28;20496;-61
2022/01/13 05:06:34;;;;;;;8.98;6.07;;;;;;;17.95;43.22;104021.28;5035254;28;20035;-61
2022/01/13 05:08:59;;;;;;;9.13;5.60;;;;;;;17.93;43.21;104017.84;5034696;28;20385;-62
2022/01/13 05:11:25;;;;;;;8.55;5.90;;;;;;;17.93;43.54;104018.69;5035289;28;20091;-62
2022/01/13 05:13:51;;;;;;;7.97;5.43;;;;;;;17.95;43.26;104018.66;5035019;28;20428;-62
2022/01/13 05:18:52;;;;;;;8.50;5.72;;;;;;;17.97;43.40;104023.88;5034824;28;20462;-62
2022/01/13 05:21:23;;;;;;;7.90;5.32;;;;;;;17.96;43.29;104017.75;5035089;28;20102;-62
2022/01/13 05:23:52;;;;;;;9.27;6.10;;;;;;;17.96;43.20;104015.09;5034946;28;20733;-62
2022/01/13 05:26:19;;;;;;;8.48;5.57;;;;;;;17.98;42.98;104022.97;5035003;28;20080;-61
2022/01/13 05:28:45;;;;;;;10.45;6.20;;;;;;;17.97;43.31;104023.88;5033972;28;20025;-61
2022/01/13 05:31:10;;;;;;;7.75;5.97;;;;;;;17.95;42.88;104016.84;5034663;28;20508;-62
2022/01/13 05:33:35;;;;;;;8.20;6.05;;;;;;;17.95;42.81;104013.38;5034505;28;20034;-62
2022/01/13 05:36:01;;;;;;;9.50;5.73;;;;;;;17.94;43.27;104015.16;5034224;28;20393;-61
2022/01/13 05:38:27;;;;;;;8.20;5.82;;;;;;;17.94;43.36;104011.63;5034901;28;20292;-61
2022/01/13 05:40:53;;;;;;;10.07;6.15;;;;;;;17.96;43.28;104020.38;5034462;28;20056;-62
2022/01/13 05:43:18;;;;;;;8.65;5.82;;;;;;;17.96;43.71;104030.94;5033979;28;20037;-62
2022/01/13 05:45:44;;;;;;;8.47;5.60;;;;;;;17.97;43.63;104026.50;5034294;28;20021;-61
2022/01/13 05:48:09;;;;;;;10.63;6.43;;;;;;;17.99;43.10;104016.75;5033921;28;20377;-62
2022/01/13 05:50:35;;;;;;;9.20;6.07;;;;;;;17.98;43.15;104025.63;5033658;28;20029;-60
2022/01/13 05:53:00;;;;;;;8.95;6.13;;;;;;;17.99;43.18;104027.31;5034526;28;20289;-60
2022/01/13 05:55:26;;;;;;;9.18;6.18;;;;;;;17.99;43.37;104028.22;5034422;28;20041;-60
2022/01/13 05:57:51;;;;;;;8.68;6.03;;;;;;;17.98;43.03;104029.09;5033357;28;20026;-61
2022/01/13 06:00:21;;;;;;;9.82;6.20;;;;;;;17.98;42.82;104034.38;5034228;28;20026;-61
2022/01/13 06:02:47;;;;;;;9.45;6.32;;;;;;;17.96;42.88;104020.38;5034096;28;20026;-61
2022/01/13 06:05:13;;;;;;;8.38;5.90;;;;;;;17.97;43.58;104027.38;5033624;28;20025;-60
2022/01/13 06:07:39;;;;;;;7.80;5.50;;;;;;;17.99;43.55;104022.94;5033913;28;20431;-61
2022/01/13 06:10:08;;;;;;;8.23;5.20;;;;;;;18.02;44.51;104019.31;5034057;28;20045;-60
2022/01/13 06:12:37;;;;;;;7.07;4.75;;;;;;;18.04;44.46;104020.13;5033005;28;20548;-61
2022/01/13 06:15:10;;;;;;;7.97;5.00;;;;;;;18.07;44.52;104022.66;5033973;28;20021;-61
2022/01/13 06:17:37;;;;;;;8.63;4.90;;;;;;;18.09;44.51;104023.50;5033234;28;20040;-61
2022/01/13 06:20:07;;;;;;;7.43;4.55;;;;;;;18.11;44.50;104025.16;5033810;28;20033;-59
2022/01/13 06:22:33;;;;;;;7.07;4.65;;;;;;;18.12;44.47;104016.34;5033407;28;20021;-60
2022/01/13 06:24:58;;;;;;;8.68;4.60;;;;;;;18.13;44.62;104009.28;5032943;28;20040;-60
2022/01/13 06:27:23;;;;;;;7.53;4.97;;;;;;;18.16;44.41;104008.34;5033777;28;20187;-61
2022/01/13 06:29:51;;;;;;;7.05;4.85;;;;;;;18.17;44.48;104005.66;5033684;28;20512;-61
2022/01/13 06:32:17;;;;;;;8.07;5.68;;;;;;;18.18;44.45;104006.50;5032885;28;20025;-60
2022/01/13 06:34:46;;;;;;;7.95;4.78;;;;;;;18.18;44.64;104007.34;5033391;28;20484;-61
2022/01/13 06:37:11;;;;;;;7.55;4.43;;;;;;;18.19;44.78;104001.19;5033607;28;20025;-61
2022/01/13 06:39:39;;;;;;;6.80;4.53;;;;;;;18.20;44.59;103999.38;5032462;28;20087;-61
2022/01/13 06:42:05;;;;;;;7.47;4.80;;;;;;;18.22;44.44;104009.00;5033344;28;20385;-61
2022/01/13 06:44:31;;;;;;;7.70;4.95;;;;;;;18.22;44.48;104001.06;5033040;28;20021;-61
2022/01/13 06:46:57;;;;;;;6.65;4.60;;;;;;;18.21;44.69;104007.25;5032763;28;20108;-61
2022/01/13 06:49:22;;;;;;;6.40;4.50;;;;;;;18.24;44.15;104014.22;5033176;28;20081;-61
2022/01/13 06:51:47;;;;;;;6.72;4.57;;;;;;;18.24;44.68;104020.38;5032848;28;20032;-61
2022/01/13 06:54:12;;;;;;;9.85;6.32;;;;;;;18.22;43.08;104018.69;5032451;28;20022;-60
2022/01/13 06:56:38;;;;;;;8.93;4.90;;;;;;;18.19;44.22;104022.28;5032863;28;20041;-60
2022/01/13 06:59:09;;;;;;;9.65;4.50;;;;;;;18.22;44.59;104018.69;5033310;28;20816;-61
2022/01/13 07:01:35;;;;;;;8.52;4.13;;;;;;;18.24;44.75;104014.22;5031365;28;20041;-61
2022/01/13 07:04:00;;;;;;;7.03;4.47;;;;;;;18.27;45.10;104007.06;5033177;28;20087;-61
2022/01/13 07:06:25;;;;;;;7.80;4.18;;;;;;;18.30;44.68;104012.25;5033030;28;20385;-61
2022/01/13 07:08:53;;;;;;;7.47;3.90;;;;;;;18.34;44.84;104009.50;5031997;28;20026;-62
2022/01/13 07:11:19;;;;;;;5.68;3.50;;;;;;;18.37;44.94;104010.28;5032837;28;20087;-62
2022/01/13 07:13:44;;;;;;;6.65;3.97;;;;;;;18.40;44.72;104012.81;5032700;28;20029;-61
2022/01/13 07:16:09;;;;;;;7.67;3.50;;;;;;;18.42;44.74;104003.09;5032206;28;20466;-60
2022/01/13 07:18:38;;;;;;;5.78;3.58;;;;;;;18.44;44.69;104006.53;5032805;28;20366;-61
2022/01/13 07:21:06;;;;;;;6.05;3.83;;;;;;;18.46;44.73;104003.84;5031916;28;20477;-62
2022/01/13 07:23:31;;;;;;;9.07;5.40;;;;;;;18.46;43.38;104014.41;5032391;28;20080;-61
2022/01/13 07:25:56;;;;;;;6.95;4.18;;;;;;;18.45;44.30;104016.19;5032849;28;20421;-62
2022/01/13 07:28:22;;;;;;;7.28;4.30;;;;;;;18.47;44.45;104013.50;5032115;28;20044;-64
2022/01/13 07:30:49;;;;;;;5.17;3.33;;;;;;;18.49;44.63;104016.94;5032341;28;20049;-62
2022/01/13 07:33:15;;;;;;;5.80;3.70;;;;;;;18.50;44.76;104021.31;5032615;28;20357;-61
2022/01/13 07:35:43;;;;;;;6.27;3.80;;;;;;;18.51;44.55;104012.47;5031565;28;20128;-63
2022/01/13 07:38:08;;;;;;;6.13;3.70;;;;;;;18.52;44.88;104008.03;5032663;28;20317;-61
2022/01/13 07:40:39;;;;;;;8.33;4.33;;;;;;;18.52;42.83;104021.25;5032402;28;20091;-61
2022/01/13 07:43:05;;;;;;;8.00;5.32;;;;;;;18.48;43.17;104015.22;5032055;28;20344;-61
2022/01/13 07:45:30;;;;;;;7.05;4.63;;;;;;;18.49;44.15;104016.94;5032362;28;20373;-59
2022/01/13 07:47:55;;;;;;;6.53;4.65;;;;;;;18.49;44.68;104009.88;5032587;28;20037;-62
2022/01/13 07:50:24;;;;;;;6.70;3.97;;;;;;;18.51;44.82;104012.47;5031874;28;20059;-60
2022/01/13 07:52:49;;;;;;;6.97;3.80;;;;;;;18.54;44.66;104020.28;5032105;28;20278;-60
2022/01/13 07:55:14;;;;;;;7.45;4.13;;;;;;;18.58;44.70;104015.75;5032690;28;20117;-61
2022/01/13 07:57:40;;;;;;;6.40;3.67;;;;;;;18.59;44.90;104023.63;5031636;28;20143;-62
2022/01/13 08:00:09;;;;;;;7.72;4.00;;;;;;;18.62;45.25;104025.31;5032771;28;20060;-61
2022/01/13 08:02:34;;;;;;;6.55;3.95;;;;;;;18.63;45.01;104022.63;5032302;28;20033;-63
2022/01/13 08:04:59;;;;;;;6.93;3.95;;;;;;;18.65;45.36;104033.16;5031739;28;20030;-64
2022/01/13 08:07:28;;;;;;;6.63;3.67;;;;;;;18.67;45.34;104032.19;5032283;28;20025;-65
2022/01/13 08:09:53;;;;;;;7.82;3.65;;;;;;;18.69;45.63;104032.13;5031935;28;20466;-62
2022/01/13 08:12:18;;;;;;;6.93;3.80;;;;;;;18.69;45.47;104026.84;5033994;28;20037;-61
2022/01/13 08:14:44;;;;;;;7.40;4.38;;;;;;;18.70;45.59;104025.94;5036007;28;20033;-62
2022/01/13 08:19:56;;;;;;;8.98;4.40;;;;;;;18.70;45.52;104041.78;5036383;28;20040;-62
2022/01/13 08:22:21;;;;;;;6.30;3.97;;;;;;;18.70;45.31;104044.41;5036246;28;20021;-62
2022/01/13 08:24:46;;;;;;;7.88;4.30;;;;;;;18.68;45.79;104041.81;5035017;28;20266;-62
2022/01/13 08:27:11;;;;;;;8.82;3.45;;;;;;;18.70;45.75;104036.50;5036033;28;20428;-61
2022/01/13 08:29:37;;;;;;;7.53;3.42;;;;;;;18.69;45.49;104042.69;5035601;28;20133;-61
2022/01/13 08:32:03;;;;;;;6.47;3.88;;;;;;;18.70;45.63;104041.78;5035290;28;20026;-62
2022/01/13 08:34:28;;;;;;;10.35;5.28;;;;;;;18.70;43.87;104048.84;5035945;28;20044;-61
2022/01/13 08:36:53;;;;;;;9.07;6.13;;;;;;;18.58;43.07;104048.34;5035753;28;20025;-60
2022/01/13 08:39:19;;;;;;;8.38;4.90;;;;;;;18.56;44.64;104058.06;5035054;28;20270;-61
2022/01/13 08:41:45;;;;;;;7.53;4.18;;;;;;;18.57;44.98;104053.69;5035507;28;20033;-60
2022/01/13 08:44:13;;;;;;;6.75;3.75;;;;;;;18.59;45.38;104049.19;5036513;28;20069;-60
2022/01/13 08:46:39;;;;;;;6.78;4.30;;;;;;;18.61;45.59;104045.59;5034820;28;20100;-61
2022/01/13 08:49:04;;;;;;;6.95;3.95;;;;;;;18.65;45.47;104051.63;5036203;28;20511;-61
2022/01/13 08:51:30;;;;;;;7.20;4.13;;;;;;;18.68;45.68;104051.53;5036287;28;20026;-62
2022/01/13 08:53:55;;;;;;;7.00;3.83;;;;;;;18.70;45.45;104051.50;5035255;28;20393;-61
2022/01/13 08:56:21;;;;;;;7.77;3.90;;;;;;;18.71;45.50;104054.09;5036278;28;20474;-61
2022/01/13 08:58:47;;;;;;;8.07;3.65;;;;;;;18.72;45.70;104057.56;5035852;28;20315;-62
2022/01/13 09:01:12;;;;;;;7.00;4.28;;;;;;;18.72;45.37;104061.06;5034698;28;20057;-62
2022/01/13 09:03:37;;;;;;;7.47;4.00;;;;;;;18.74;45.43;104067.19;5035129;28;20048;-61
2022/01/13 09:06:03;;;;;;;7.57;4.82;;;;;;;18.74;44.96;104076.88;5035608;28;20029;-60
2022/01/13 09:08:29;;;;;;;9.18;6.28;;;;;;;18.64;43.42;104065.75;5034560;28;20115;-62
2022/01/13 09:10:55;;;;;;;11.32;7.45;;;;;;;18.58;41.27;104072.13;5035492;28;20030;-60
2022/01/13 09:13:20;;;;;;;11.10;5.80;;;;;;;18.51;43.50;104064.44;5035143;28;20025;-62
2022/01/13 09:15:51;;;;;;;9.30;4.97;;;;;;;18.49;44.68;104070.63;5034250;28;20033;-61
2022/01/13 09:18:29;;;;;;;9.15;4.60;;;;;;;18.52;45.57;104067.03;5035799;28;20038;-65
2022/01/13 09:20:58;;;;;;;7.22;4.10;;;;;;;18.62;45.97;104076.38;5036142;28;20040;-65
2022/01/13 09:23:23;;;;;;;8.50;4.13;;;;;;;18.77;45.85;104082.94;5034933;28;20021;-63
2022/01/13 09:25:52;;;;;;;8.93;5.15;;;;;;;18.89;45.93;104086.97;5035143;28;20029;-65
2022/01/13 09:28:18;;;;;;;7.05;4.45;;;;;;;19.01;45.39;104081.28;5035271;28;20037;-65
2022/01/13 09:30:43;;;;;;;9.20;4.32;;;;;;;19.13;45.16;104080.00;5035130;28;20048;-66
2022/01/13 09:33:08;;;;;;;9.68;4.43;;;;;;;19.22;44.97;104089.41;5035359;28;20116;-65
2022/01/13 09:35:34;;;;;;;8.77;4.40;;;;;;;19.28;44.58;104080.38;5034153;28;20120;-65
2022/01/13 09:38:01;;;;;;;11.35;4.80;;;;;;;19.36;44.59;104084.47;5035175;28;20041;-66
2022/01/13 09:40:27;;;;;;;8.40;4.30;;;;;;;19.39;44.29;104091.44;5034963;28;20021;-63
2022/01/13 09:42:53;;;;;;;7.45;4.22;;;;;;;19.35;44.74;104089.81;5033604;28;20021;-64
2022/01/13 09:45:22;;;;;;;8.30;4.22;;;;;;;19.30;44.72;104081.19;5034489;28;20481;-62
2022/01/13 09:47:49;;;;;;;8.77;3.78;;;;;;;19.27;44.90;104081.31;5034496;28;20022;-63
2022/01/13 09:50:17;;;;;;;8.30;4.20;;;;;;;19.24;45.10;104076.13;5034094;28;20381;-62
2022/01/13 09:52:44;;;;;;;9.32;4.50;;;;;;;19.20;45.10;104078.88;5034364;28;20033;-62
2022/01/13 09:55:14;;;;;;;7.60;4.28;;;;;;;19.17;45.22;104071.03;5034571;28;20053;-62
2022/01/13 09:57:42;;;;;;;7.53;3.95;;;;;;;19.17;45.30;104078.97;5033524;28;20040;-62
2022/01/13 10:00:09;;;;;;;8.60;4.30;;;;;;;19.15;45.20;104078.19;5034214;28;20037;-63
2022/01/13 10:02:34;;;;;;;7.97;3.88;;;;;;;19.14;45.24;104081.72;5034309;28;20373;-62
2022/01/13 10:04:59;;;;;;;6.45;3.85;;;;;;;19.13;45.26;104082.63;5033790;28;20025;-61
2022/01/13 10:07:30;;;;;;;8.23;4.47;;;;;;;19.14;45.50;104081.72;5034298;28;20021;-61
2022/01/13 10:09:58;;;;;;;9.82;4.20;;;;;;;19.12;45.28;104075.63;5033690;28;20033;-61
2022/01/13 10:12:32;;;;;;;8.30;4.10;;;;;;;19.12;45.63;104073.00;5034232;28;20021;-64
2022/01/13 10:17:24;;;;;;;8.93;4.43;;;;;;;19.24;45.19;104079.63;5033810;28;20473;-66
2022/01/13 10:19:50;;;;;;;8.70;4.53;;;;;;;19.36;45.34;104081.84;5034077;28;20029;-66
2022/01/13 10:22:23;;;;;;;6.47;3.72;;;;;;;19.45;45.57;104078.00;5034097;28;20030;-68
2022/01/13 10:24:52;;;;;;;8.75;4.43;;;;;;;19.52;45.36;104071.56;5033818;28;20018;-67
2022/01/13 10:27:19;;;;;;;7.53;4.10;;;;;;;19.58;45.07;104075.75;5034754;28;20021;-68
2022/01/13 10:29:53;;;;;;;7.97;4.38;;;;;;;19.63;44.91;104073.81;5034708;28;20092;-64
2022/01/13 10:32:27;;;;;;;7.55;4.35;;;;;;;19.68;44.35;104076.31;5033402;28;20029;-65
2022/01/13 10:35:03;;;;;;;10.05;4.60;;;;;;;19.70;44.34;104080.59;5033945;28;20033;-63
2022/01/13 10:37:31;;;;;;;8.15;4.38;;;;;;;19.74;44.36;104089.28;5033742;28;20033;-65
2022/01/13 10:40:05;;;;;;;7.30;4.38;;;;;;;19.77;44.29;104083.06;5033615;28;20089;-66
2022/01/13 10:43:06;;;;;;;8.48;5.30;;;;;;;19.79;43.99;104086.50;5033819;28;20441;-66
2022/01/13 10:45:26;;;;;;;13.23;4.55;;;;;;;19.80;43.74;104086.44;5033083;28;20042;-68
2022/01/13 10:48:02;;;;;;;8.45;4.25;;;;;;;19.82;43.85;104075.78;5033256;28;20061;-68
2022/01/13 10:50:42;;;;;;;10.05;4.68;;;;;;;19.81;43.43;104072.28;5033752;28;20040;-66
2022/01/13 10:53:18;;;;;;;10.60;4.78;;;;;;;19.80;43.66;104072.34;5032725;28;20524;-66
2022/01/13 10:55:48;;;;;;;10.00;4.53;;;;;;;19.80;43.51;104081.16;5033199;28;20072;-66
2022/01/13 10:58:15;;;;;;;8.65;4.97;;;;;;;19.78;43.44;104072.41;5033352;28;20026;-66
2022/01/13 11:00:42;;;;;;;11.43;4.72;;;;;;;19.74;43.54;104065.47;5032508;28;20095;-66
2022/01/13 11:03:22;;;;;;;8.65;4.40;;;;;;;19.72;43.81;104064.66;5033385;28;20033;-65
2022/01/13 11:05:51;;;;;;;9.57;4.70;;;;;;;19.71;44.02;104055.00;5033492;28;20025;-67
2022/01/13 11:08:41;;;;;;;7.43;4.57;;;;;;;19.65;44.14;104057.91;5032574;28;20025;-63
2022/01/13 11:11:17;;;;;;;7.88;4.63;;;;;;;19.53;43.73;104045.97;5033386;28;20104;-62
2022/01/13 11:13:52;;;;;;;7.07;4.32;;;;;;;19.47;44.16;104054.13;5032087;28;20021;-62
2022/01/13 11:16:21;;;;;;;11.38;4.88;;;;;;;19.41;44.64;104052.59;5033045;28;20489;-62
2022/01/13 11:18:46;;;;;;;10.88;4.90;;;;;;;19.34;42.91;104045.78;5032625;28;20045;-61
2022/01/13 11:21:11;;;;;;;8.82;4.78;;;;;;;19.28;44.25;104036.31;5032060;28;20035;-60
2022/01/13 11:23:38;;;;;;;11.27;4.35;;;;;;;19.24;44.70;104039.97;5032856;28;20350;-61
2022/01/13 11:26:04;;;;;;;10.90;4.90;;;;;;;19.20;44.84;104033.94;5032787;28;20519;-62
2022/01/13 11:28:29;;;;;;;9.13;4.80;;;;;;;19.19;44.45;104034.84;5031874;28;20060;-60
2022/01/13 11:30:58;;;;;;;7.38;4.78;;;;;;;19.17;44.68;104031.38;5032539;28;20042;-59
2022/01/13 11:33:24;;;;;;;7.75;4.45;;;;;;;19.15;44.52;104033.22;5032840;28;20044;-60
2022/01/13 11:35:56;;;;;;;9.20;4.25;;;;;;;19.12;44.60;104030.69;5031690;28;20025;-60
2022/01/13 11:38:24;;;;;;;8.25;4.18;;;;;;;19.10;44.88;104021.94;5033031;28;20052;-60
2022/01/13 11:40:59;;;;;;;8.57;4.88;;;;;;;19.10;44.73;104026.38;5032481;28;20034;-60
2022/01/13 11:43:40;;;;;;;8.48;5.22;;;;;;;19.09;44.74;104021.97;5032104;28;20022;-60
2022/01/13 11:46:25;;;;;;;12.55;5.00;;;;;;;19.06;45.31;104036.19;5033598;28;20049;-59
2022/01/13 11:48:57;;;;;;;10.93;5.65;;;;;;;19.05;45.04;104038.88;5038380;28;20022;-60
2022/01/13 11:51:56;;;;;;;11.38;5.40;;;;;;;19.03;45.00;104038.94;5039062;28;20446;-60
2022/01/13 11:54:41;;;;;;;13.00;6.57;;;;;;;18.98;43.79;104038.25;5039087;28;20503;-61
2022/01/13 11:57:35;;;;;;;10.75;6.15;;;;;;;18.89;44.93;104033.28;5038595;28;20155;-61